createdAt,value
2022-11-22T00:00:08.785Z,46.59
2022-11-22T00:02:35.646Z,46.38
2022-11-22T00:05:02.373Z,46.09
2022-11-22T00:07:29.029Z,46.50
2022-11-22T00:09:55.699Z,46.54
2022-11-22T00:12:22.313Z,46.29
2022-11-22T00:14:53.919Z,45.91
2022-11-22T00:17:23.248Z,46.35
2022-11-22T00:19:49.873Z,46.32
2022-11-22T00:22:16.504Z,45.82
2022-11-22T00:24:43.212Z,46.44
2022-11-22T00:27:09.842Z,46.06
2022-11-22T00:29:36.480Z,46.53
2022-11-22T00:32:03.171Z,46.30
2022-11-22T00:34:29.820Z,46.12
2022-11-22T00:36:56.473Z,46.08
2022-11-22T00:39:23.108Z,46.10
2022-11-22T00:41:49.738Z,46.11
2022-11-22T00:44:16.373Z,45.60
2022-11-22T00:46:43.001Z,45.85
2022-11-22T00:49:09.617Z,45.86
2022-11-22T00:51:36.325Z,45.76
2022-11-22T00:54:02.934Z,45.67
2022-11-22T00:56:29.545Z,45.92
2022-11-22T00:58:56.209Z,45.57
2022-11-22T01:01:22.866Z,45.95
2022-11-22T01:03:49.513Z,45.76
2022-11-22T01:06:16.126Z,45.58
2022-11-22T01:08:42.773Z,45.58
2022-11-22T01:11:09.377Z,45.85
2022-11-22T01:13:35.987Z,46.07
2022-11-22T01:16:03.970Z,45.87
2022-11-22T01:18:30.651Z,45.60
2022-11-22T01:20:57.285Z,45.63
2022-11-22T01:23:23.923Z,45.89
2022-11-22T01:25:50.555Z,45.80
2022-11-22T01:28:17.298Z,45.98
2022-11-22T01:30:43.924Z,45.80
2022-11-22T01:33:10.662Z,45.63
2022-11-22T01:35:37.320Z,45.77
2022-11-22T01:38:03.940Z,45.49
2022-11-22T01:40:30.552Z,45.62
2022-11-22T01:42:58.619Z,45.57
2022-11-22T01:45:30.964Z,45.92
2022-11-22T01:48:10.348Z,45.88
2022-11-22T01:50:36.964Z,45.89
2022-11-22T01:53:08.688Z,45.74
2022-11-22T01:55:35.410Z,45.85
2022-11-22T01:58:02.093Z,45.84
2022-11-22T02:00:28.704Z,45.80
2022-11-22T02:02:56.959Z,45.90
2022-11-22T02:05:25.834Z,45.53
2022-11-22T02:07:59.025Z,46.16
2022-11-22T02:10:27.917Z,45.87
2022-11-22T02:12:55.325Z,45.94
2022-11-22T02:15:21.956Z,46.29
2022-11-22T02:17:48.579Z,46.03
2022-11-22T02:20:15.526Z,46.03
2022-11-22T02:22:56.204Z,46.06
2022-11-22T02:25:40.926Z,46.43
2022-11-22T02:28:09.012Z,45.79
2022-11-22T02:30:39.162Z,45.91
2022-11-22T02:33:05.843Z,46.09
2022-11-22T02:35:32.568Z,46.11
2022-11-22T02:38:01.272Z,45.90
2022-11-22T02:40:29.218Z,45.23
2022-11-22T02:42:58.844Z,45.89
2022-11-22T02:45:25.465Z,45.99
2022-11-22T02:47:52.099Z,45.92
2022-11-22T02:50:18.727Z,46.10
2022-11-22T02:52:45.340Z,45.56
2022-11-22T02:55:11.953Z,45.54
2022-11-22T02:57:38.583Z,45.86
2022-11-22T03:00:05.786Z,45.95
2022-11-22T03:02:32.414Z,45.43
2022-11-22T03:04:59.021Z,45.91
2022-11-22T03:07:25.713Z,45.51
2022-11-22T03:09:52.346Z,45.66
2022-11-22T03:12:18.958Z,45.83
2022-11-22T03:14:45.671Z,45.60
2022-11-22T03:17:12.289Z,45.86
2022-11-22T03:19:38.898Z,45.50
2022-11-22T03:22:05.552Z,45.94
2022-11-22T03:24:32.192Z,45.71
2022-11-22T03:26:58.791Z,46.18
2022-11-22T03:29:25.402Z,46.16
2022-11-22T03:31:52.020Z,45.99
2022-11-22T03:34:18.624Z,46.31
2022-11-22T03:36:45.258Z,46.10
2022-11-22T03:39:11.916Z,45.88
2022-11-22T03:41:38.525Z,45.83
2022-11-22T03:44:05.347Z,45.94
2022-11-22T03:46:31.963Z,45.59
2022-11-22T03:48:58.587Z,45.78
2022-11-22T03:51:25.192Z,45.82
2022-11-22T03:53:51.794Z,46.02
2022-11-22T03:56:18.417Z,45.69
2022-11-22T03:58:45.036Z,46.16
2022-11-22T04:01:16.384Z,45.79
2022-11-22T04:03:43.456Z,45.74
2022-11-22T04:06:10.091Z,46.21
2022-11-22T04:08:36.738Z,46.29
2022-11-22T04:11:03.352Z,45.72
2022-11-22T04:13:29.958Z,46.30
2022-11-22T04:15:56.579Z,46.30
2022-11-22T04:18:23.199Z,45.72
2022-11-22T04:20:49.828Z,46.17
2022-11-22T04:23:20.439Z,46.09
2022-11-22T04:25:50.552Z,46.05
2022-11-22T04:28:19.128Z,45.74
2022-11-22T04:30:45.761Z,45.64
2022-11-22T04:33:12.389Z,45.75
2022-11-22T04:35:39.276Z,45.68
2022-11-22T04:38:05.915Z,45.85
2022-11-22T04:40:32.813Z,45.57
2022-11-22T04:42:59.443Z,45.66
2022-11-22T04:45:26.073Z,45.40
2022-11-22T04:47:52.706Z,45.72
2022-11-22T04:50:19.334Z,46.15
2022-11-22T04:52:45.947Z,45.45
2022-11-22T04:55:12.550Z,46.06
2022-11-22T04:57:39.174Z,46.17
2022-11-22T05:00:06.490Z,45.47
2022-11-22T05:02:33.112Z,45.94
2022-11-22T05:04:59.727Z,45.88
2022-11-22T05:07:26.385Z,45.92
2022-11-22T05:09:53.013Z,46.02
2022-11-22T05:12:19.628Z,45.72
2022-11-22T05:14:46.249Z,45.91
2022-11-22T05:17:13.522Z,46.03
2022-11-22T05:19:43.565Z,46.14
2022-11-22T05:22:12.903Z,46.13
2022-11-22T05:24:39.546Z,46.11
2022-11-22T05:27:06.172Z,45.61
2022-11-22T05:29:32.775Z,45.76
2022-11-22T05:31:59.386Z,46.00
2022-11-22T05:34:26.059Z,45.88
2022-11-22T05:36:52.677Z,45.57
2022-11-22T05:39:19.309Z,45.38
2022-11-22T05:41:45.913Z,45.10
2022-11-22T05:44:12.539Z,45.40
2022-11-22T05:46:39.179Z,45.10
2022-11-22T05:49:05.784Z,43.92
2022-11-22T05:51:34.868Z,44.13
2022-11-22T05:54:02.296Z,44.41
2022-11-22T05:56:28.917Z,44.50
2022-11-22T05:58:55.537Z,44.40
2022-11-22T06:01:22.984Z,44.61
2022-11-22T06:03:49.771Z,44.80
2022-11-22T06:06:16.409Z,44.87
2022-11-22T06:08:43.408Z,44.87
2022-11-22T06:11:13.080Z,44.77
2022-11-22T06:13:40.420Z,44.87
2022-11-22T06:16:07.717Z,44.79
2022-11-22T06:18:34.453Z,44.38
2022-11-22T06:21:01.898Z,44.51
2022-11-22T06:23:28.591Z,44.53
2022-11-22T06:25:59.147Z,44.31
2022-11-22T06:28:26.765Z,44.68
2022-11-22T06:30:53.398Z,44.16
2022-11-22T06:33:20.104Z,44.78
2022-11-22T06:35:46.722Z,44.47
2022-11-22T06:38:13.359Z,45.18
2022-11-22T06:40:40.039Z,44.98
2022-11-22T06:43:06.646Z,45.46
2022-11-22T06:45:33.265Z,45.83
2022-11-22T06:47:59.883Z,45.99
2022-11-22T06:50:26.493Z,45.90
2022-11-22T06:52:53.149Z,45.99
2022-11-22T06:55:48.598Z,45.93
2022-11-22T06:58:06.358Z,45.69
2022-11-22T07:00:32.967Z,45.67
2022-11-22T07:02:59.638Z,45.77
2022-11-22T07:05:26.556Z,45.76
2022-11-22T07:07:53.320Z,45.23
2022-11-22T07:10:20.139Z,45.69
2022-11-22T07:12:46.741Z,45.63
2022-11-22T07:15:13.379Z,45.12
2022-11-22T07:17:39.995Z,45.05
2022-11-22T07:20:06.925Z,45.39
2022-11-22T07:22:33.564Z,45.86
2022-11-22T07:25:00.219Z,45.27
2022-11-22T07:27:26.852Z,45.83
2022-11-22T07:29:53.449Z,46.27
2022-11-22T07:32:20.076Z,46.16
2022-11-22T07:34:46.696Z,45.66
2022-11-22T07:37:13.332Z,46.29
2022-11-22T07:39:39.945Z,46.18
2022-11-22T07:42:06.574Z,46.07
2022-11-22T07:44:33.186Z,46.56
2022-11-22T07:46:59.861Z,46.40
2022-11-22T07:49:26.490Z,46.23
2022-11-22T07:51:53.125Z,45.77
2022-11-22T07:54:19.748Z,44.95
2022-11-22T07:56:46.379Z,44.22
2022-11-22T07:59:12.981Z,44.41
2022-11-22T08:01:39.738Z,44.81
2022-11-22T08:04:06.411Z,44.92
2022-11-22T08:06:33.037Z,45.42
2022-11-22T08:09:02.221Z,45.23
2022-11-22T08:11:29.137Z,45.04
2022-11-22T08:13:55.774Z,45.62
2022-11-22T08:16:22.516Z,45.07
2022-11-22T08:18:49.297Z,45.29
2022-11-22T08:21:16.508Z,45.10
2022-11-22T08:23:43.327Z,44.97
2022-11-22T08:26:11.961Z,45.35
2022-11-22T08:28:39.179Z,45.06
2022-11-22T08:31:10.309Z,45.34
2022-11-22T08:33:36.944Z,44.94
2022-11-22T08:36:03.945Z,45.35
2022-11-22T08:38:30.557Z,44.60
2022-11-22T08:40:57.204Z,44.65
2022-11-22T08:43:23.946Z,44.87
2022-11-22T08:45:54.634Z,44.92
2022-11-22T08:48:22.525Z,44.58
2022-11-22T08:50:50.812Z,44.91
2022-11-22T08:53:17.432Z,44.65
2022-11-22T08:55:44.041Z,44.87
2022-11-22T08:58:10.653Z,44.38
2022-11-22T09:00:37.271Z,43.97
2022-11-22T09:03:03.985Z,44.46
2022-11-22T09:05:31.202Z,43.95
2022-11-22T09:10:44.891Z,44.42
2022-11-22T09:13:11.491Z,43.96
2022-11-22T09:15:38.113Z,44.20
2022-11-22T09:18:04.716Z,44.40
2022-11-22T09:20:31.356Z,44.31
2022-11-22T09:22:57.983Z,44.41
2022-11-22T09:25:24.602Z,44.46
2022-11-22T09:27:51.301Z,43.66
2022-11-22T09:30:17.909Z,43.72
2022-11-22T09:32:44.672Z,43.72
2022-11-22T09:35:11.291Z,43.63
2022-11-22T09:37:37.931Z,44.70
2022-11-22T09:40:05.045Z,44.80
2022-11-22T09:42:44.039Z,44.00
2022-11-22T09:45:26.106Z,43.70
2022-11-22T09:48:17.435Z,44.03
2022-11-22T09:51:00.852Z,44.12
2022-11-22T09:53:38.052Z,43.87
2022-11-22T09:56:08.423Z,44.02
2022-11-22T09:58:46.817Z,44.03
2022-11-22T10:01:24.092Z,43.86
2022-11-22T10:03:54.742Z,43.99
2022-11-22T10:06:25.610Z,43.75
2022-11-22T10:09:17.521Z,43.88
2022-11-22T10:12:14.971Z,44.02
2022-11-22T10:14:41.429Z,44.16
2022-11-22T10:17:36.019Z,43.87
2022-11-22T10:20:16.653Z,44.14
2022-11-22T10:22:43.259Z,44.07
2022-11-22T10:25:19.981Z,44.12
2022-11-22T10:28:01.141Z,44.04
2022-11-22T10:30:32.170Z,44.08
2022-11-22T10:33:24.030Z,43.81
2022-11-22T10:36:20.089Z,43.44
2022-11-22T10:38:49.565Z,43.63
2022-11-22T10:41:22.232Z,43.90
2022-11-22T10:43:56.970Z,43.63
2022-11-22T10:46:29.808Z,43.53
2022-11-22T10:49:14.865Z,42.88
2022-11-22T10:52:04.809Z,43.21
2022-11-22T10:54:46.595Z,42.77
2022-11-22T10:57:42.043Z,42.86
2022-11-22T11:00:21.586Z,42.88
2022-11-22T11:02:57.180Z,42.79
2022-11-22T11:05:30.909Z,42.45
2022-11-22T11:08:15.374Z,41.81
2022-11-22T11:10:44.179Z,41.84
2022-11-22T11:13:21.908Z,42.32
2022-11-22T11:15:56.264Z,42.51
2022-11-22T11:18:54.105Z,42.40
2022-11-22T11:21:20.730Z,42.25
2022-11-22T11:23:47.331Z,42.84
2022-11-22T11:26:20.469Z,42.49
2022-11-22T11:28:47.087Z,42.82
2022-11-22T11:31:13.868Z,42.86
2022-11-22T11:33:40.954Z,43.06
2022-11-22T11:36:14.169Z,42.91
2022-11-22T11:38:40.669Z,42.95
2022-11-22T11:41:17.278Z,42.68
2022-11-22T11:43:43.915Z,42.46
2022-11-22T11:46:18.364Z,42.97
2022-11-22T11:48:45.000Z,42.61
2022-11-22T11:51:25.502Z,42.72
2022-11-22T11:54:10.977Z,42.33
2022-11-22T11:56:46.365Z,42.70
2022-11-22T11:59:38.424Z,42.46
2022-11-22T12:02:21.705Z,42.46
2022-11-22T12:04:55.022Z,42.17
2022-11-22T12:07:38.012Z,42.45
2022-11-22T12:10:29.032Z,42.92
2022-11-22T12:13:15.659Z,42.75
2022-11-22T12:16:01.542Z,42.72
2022-11-22T12:18:48.914Z,42.42
2022-11-22T12:21:49.525Z,42.59
2022-11-22T12:25:24.255Z,42.38
2022-11-22T12:27:24.391Z,42.60
2022-11-22T12:29:51.274Z,42.19
2022-11-22T12:32:36.776Z,42.36
2022-11-22T12:35:09.474Z,41.94
2022-11-22T12:37:52.500Z,41.98
2022-11-22T12:40:31.776Z,41.72
2022-11-22T12:42:59.733Z,42.08
2022-11-22T12:45:36.500Z,42.19
2022-11-22T12:48:26.588Z,42.16
2022-11-22T12:50:54.145Z,41.74
2022-11-22T12:53:28.169Z,41.82
2022-11-22T12:55:59.400Z,41.86
2022-11-22T12:59:01.450Z,41.88
2022-11-22T13:01:36.989Z,41.73
2022-11-22T13:04:06.092Z,41.96
2022-11-22T13:06:53.339Z,41.97
2022-11-22T13:09:22.110Z,41.56
2022-11-22T13:11:58.171Z,41.84
2022-11-22T13:14:49.029Z,41.77
2022-11-22T13:17:16.292Z,41.58
2022-11-22T13:19:47.143Z,41.33
2022-11-22T13:22:17.829Z,41.45
2022-11-22T13:25:23.087Z,41.58
2022-11-22T13:27:49.861Z,41.66
2022-11-22T13:30:24.186Z,41.68
2022-11-22T13:33:00.646Z,41.59
2022-11-22T13:35:31.858Z,41.86
2022-11-22T13:38:14.521Z,41.72
2022-11-22T13:40:45.882Z,41.63
2022-11-22T13:43:21.416Z,42.21
2022-11-22T13:45:55.060Z,42.15
2022-11-22T13:48:39.761Z,41.76
2022-11-22T13:51:32.369Z,41.26
2022-11-22T13:54:36.555Z,41.19
2022-11-22T13:57:24.766Z,40.29
2022-11-22T14:00:09.897Z,40.63
2022-11-22T14:02:36.512Z,40.17
2022-11-22T14:05:11.819Z,40.52
2022-11-22T14:07:38.622Z,40.55
2022-11-22T14:10:23.852Z,40.55
2022-11-22T14:13:34.806Z,40.40
2022-11-22T14:16:06.417Z,40.29
2022-11-22T14:18:59.130Z,40.59
2022-11-22T14:21:46.413Z,40.26
2022-11-22T14:24:43.955Z,40.18
2022-11-22T14:27:36.049Z,40.31
2022-11-22T14:30:12.837Z,40.61
2022-11-22T14:33:00.295Z,40.61
2022-11-22T14:36:13.077Z,40.77
2022-11-22T14:38:40.647Z,40.62
2022-11-22T14:41:28.929Z,40.67
2022-11-22T14:44:12.126Z,40.49
2022-11-22T14:47:02.663Z,39.90
2022-11-22T14:49:55.389Z,40.42
2022-11-22T14:52:23.679Z,40.57
2022-11-22T14:54:53.831Z,40.46
2022-11-22T14:57:20.529Z,40.51
2022-11-22T15:00:15.165Z,40.06
2022-11-22T15:02:57.933Z,40.44
2022-11-22T15:09:10.678Z,40.29
2022-11-22T15:09:13.536Z,40.01
2022-11-22T15:11:52.712Z,40.04
2022-11-22T15:14:43.489Z,38.92
2022-11-22T15:59:37.816Z,40.17
2022-11-22T16:02:10.831Z,40.21
2022-11-22T16:04:37.481Z,40.26
2022-11-22T16:07:05.613Z,40.55
2022-11-22T16:09:36.374Z,39.71
2022-11-22T16:12:05.271Z,40.53
2022-11-22T16:14:43.384Z,40.48
2022-11-22T16:17:24.257Z,40.23
2022-11-22T16:19:50.874Z,39.98
2022-11-22T16:22:31.324Z,40.12
2022-11-22T16:25:42.782Z,40.31
2022-11-22T16:28:28.709Z,40.16
2022-11-22T16:30:59.081Z,40.30
2022-11-22T16:33:25.732Z,40.18
2022-11-22T16:35:53.470Z,39.60
2022-11-22T16:38:20.136Z,39.69
2022-11-22T16:40:46.764Z,40.21
2022-11-22T16:43:20.314Z,39.91
2022-11-22T16:45:46.938Z,40.04
2022-11-22T16:48:30.683Z,40.27
2022-11-22T16:51:01.853Z,40.10
2022-11-22T16:53:33.909Z,40.15
2022-11-22T16:56:00.526Z,40.30
2022-11-22T16:58:28.197Z,39.96
2022-11-22T17:00:54.951Z,39.86
2022-11-22T17:03:22.688Z,39.98
2022-11-22T17:05:49.315Z,40.06
2022-11-22T17:08:18.893Z,40.10
2022-11-22T17:10:52.044Z,39.92
2022-11-22T17:13:25.325Z,40.10
2022-11-22T17:15:52.961Z,39.81
2022-11-22T17:18:19.559Z,39.72
2022-11-22T17:20:46.174Z,40.30
2022-11-22T17:23:27.303Z,39.73
2022-11-22T17:25:53.914Z,38.96
2022-11-22T17:28:20.536Z,40.00
2022-11-22T17:30:47.162Z,39.53
2022-11-22T17:33:13.781Z,39.40
2022-11-22T17:35:40.381Z,39.09
2022-11-22T17:38:07.010Z,38.65
2022-11-22T17:40:33.633Z,38.47
2022-11-22T17:43:00.244Z,38.81
2022-11-22T17:45:26.960Z,38.07
2022-11-22T17:47:53.577Z,38.21
2022-11-22T17:50:20.213Z,38.65
2022-11-22T17:52:46.844Z,38.96
2022-11-22T17:55:14.601Z,38.71
2022-11-22T17:57:41.352Z,38.44
2022-11-22T18:00:08.452Z,38.80
2022-11-22T18:02:35.197Z,39.00
2022-11-22T18:05:01.889Z,39.67
2022-11-22T18:07:28.654Z,39.07
2022-11-22T18:09:55.395Z,38.83
2022-11-22T18:12:22.122Z,39.17
2022-11-22T18:14:48.730Z,39.33
2022-11-22T18:17:15.354Z,38.78
2022-11-22T18:19:41.983Z,39.54
2022-11-22T18:22:08.609Z,39.35
2022-11-22T18:24:37.813Z,39.74
2022-11-22T18:27:04.405Z,39.57
2022-11-22T18:29:46.369Z,40.21
2022-11-22T18:32:13.002Z,39.34
2022-11-22T18:34:39.612Z,39.20
2022-11-22T18:37:06.289Z,38.85
2022-11-22T18:39:38.040Z,39.81
2022-11-22T18:42:13.632Z,39.57
2022-11-22T18:44:40.260Z,39.59
2022-11-22T18:47:06.963Z,39.97
2022-11-22T18:49:33.903Z,40.03
2022-11-22T18:52:00.696Z,40.07
2022-11-22T18:54:27.306Z,40.28
2022-11-22T18:56:53.968Z,40.41
2022-11-22T18:59:20.597Z,40.78
2022-11-22T19:01:47.214Z,40.44
2022-11-22T19:04:13.985Z,40.31
2022-11-22T19:06:40.631Z,40.46
2022-11-22T19:09:07.445Z,40.66
2022-11-22T19:11:34.075Z,40.65
2022-11-22T19:14:00.711Z,40.95
2022-11-22T19:16:27.342Z,40.51
2022-11-22T19:18:53.971Z,40.58
2022-11-22T19:21:21.969Z,40.13
2022-11-22T19:23:48.659Z,40.63
2022-11-22T19:26:19.776Z,40.62
2022-11-22T19:28:47.220Z,41.20
2022-11-22T19:31:18.283Z,41.03
2022-11-22T19:33:44.932Z,41.25
2022-11-22T19:36:13.067Z,41.51
2022-11-22T19:38:39.686Z,41.56
2022-11-22T19:41:10.068Z,41.62
2022-11-22T19:43:37.272Z,40.94
2022-11-22T19:46:04.266Z,40.93
2022-11-22T19:48:30.886Z,40.48
2022-11-22T19:50:57.485Z,41.14
2022-11-22T19:53:24.210Z,40.45
2022-11-22T19:55:51.063Z,41.09
2022-11-22T19:58:17.696Z,42.22
2022-11-22T20:00:44.422Z,41.98
2022-11-22T20:03:12.833Z,41.56
2022-11-22T20:05:39.438Z,42.14
2022-11-22T20:08:06.063Z,41.44
2022-11-22T20:10:32.676Z,41.56
2022-11-22T20:12:59.285Z,41.87
2022-11-22T20:15:25.905Z,41.93
2022-11-22T20:17:52.624Z,41.96
2022-11-22T20:20:19.239Z,41.55
2022-11-22T20:22:45.881Z,41.53
2022-11-22T20:25:12.496Z,41.44
2022-11-22T20:27:39.098Z,41.76
2022-11-22T20:30:06.099Z,41.43
2022-11-22T20:32:32.713Z,41.19
2022-11-22T20:34:59.353Z,41.46
2022-11-22T20:37:25.971Z,41.85
2022-11-22T20:39:52.584Z,41.65
2022-11-22T20:42:34.026Z,41.44
2022-11-22T20:45:01.607Z,41.85
2022-11-22T20:47:28.224Z,41.51
2022-11-22T20:49:54.832Z,41.03
2022-11-22T20:52:21.431Z,41.47
2022-11-22T20:54:48.041Z,41.47
2022-11-22T20:57:14.664Z,41.38
2022-11-22T20:59:41.311Z,41.55
2022-11-22T21:02:11.604Z,41.71
2022-11-22T21:04:38.198Z,42.10
2022-11-22T21:07:04.904Z,41.71
2022-11-22T21:09:31.564Z,41.95
2022-11-22T21:11:58.178Z,41.76
2022-11-22T21:14:24.798Z,41.61
2022-11-22T21:16:51.427Z,41.98
2022-11-22T21:19:18.037Z,41.67
2022-11-22T21:21:44.632Z,41.48
2022-11-22T21:24:11.258Z,41.73
2022-11-22T21:26:37.862Z,41.42
2022-11-22T21:29:04.482Z,42.03
2022-11-22T21:31:31.092Z,41.48
2022-11-22T21:33:57.692Z,41.54
2022-11-22T21:36:24.303Z,41.69
2022-11-22T21:38:50.929Z,41.52
2022-11-22T21:44:08.226Z,41.79
2022-11-22T21:46:34.822Z,41.90
2022-11-22T21:49:01.452Z,41.62
2022-11-22T21:51:28.092Z,41.74
2022-11-22T21:53:58.347Z,41.61
2022-11-22T21:56:25.544Z,41.61
2022-11-22T21:58:52.162Z,41.98
2022-11-22T22:01:19.032Z,41.78
2022-11-22T22:03:45.717Z,42.20
2022-11-22T22:06:12.339Z,41.46
2022-11-22T22:08:38.986Z,41.51
2022-11-22T22:11:05.641Z,41.18
2022-11-22T22:13:32.375Z,41.54
2022-11-22T22:16:00.157Z,41.46
2022-11-22T22:18:33.784Z,41.19
2022-11-22T22:21:04.270Z,41.51
2022-11-22T22:23:30.909Z,41.29
2022-11-22T22:25:58.862Z,41.72
2022-11-22T22:28:27.322Z,41.28
2022-11-22T22:31:01.948Z,41.42
2022-11-22T22:33:28.626Z,41.74
2022-11-22T22:35:55.281Z,41.32
2022-11-22T22:38:21.892Z,41.36
2022-11-22T22:41:01.687Z,41.31
2022-11-22T22:43:32.247Z,41.38
2022-11-22T22:46:06.807Z,41.26
2022-11-22T22:48:33.830Z,41.42
2022-11-22T22:51:13.556Z,41.26
2022-11-22T22:53:40.349Z,41.66
2022-11-22T22:56:07.536Z,41.55
2022-11-22T22:58:34.236Z,41.76
2022-11-22T23:01:20.137Z,41.48
2022-11-22T23:03:50.452Z,41.38
2022-11-22T23:06:17.487Z,41.38
2022-11-22T23:08:48.178Z,41.82
2022-11-22T23:11:14.869Z,41.59
2022-11-22T23:13:42.298Z,41.41
2022-11-22T23:16:13.072Z,41.60
2022-11-22T23:18:41.198Z,41.52
2022-11-22T23:21:08.884Z,41.83
2022-11-22T23:23:35.491Z,41.72
2022-11-22T23:26:06.892Z,41.45
2022-11-22T23:28:33.498Z,41.63
2022-11-22T23:31:06.839Z,41.54
2022-11-22T23:33:33.753Z,41.71
2022-11-22T23:36:04.532Z,41.32
2022-11-22T23:38:31.155Z,41.45
2022-11-22T23:40:57.776Z,41.78
2022-11-22T23:43:24.384Z,41.39
2022-11-22T23:45:50.989Z,41.53
2022-11-22T23:48:17.617Z,41.88
2022-11-22T23:50:44.220Z,41.42
2022-11-22T23:53:10.839Z,41.89
2022-11-22T23:55:37.453Z,41.82
2022-11-22T23:58:04.089Z,41.41
